createdAt,value
2018-11-25T00:01:28.512Z,51.90
2018-11-25T00:03:56.652Z,51.80
2018-11-25T00:06:24.780Z,51.70
2018-11-25T00:08:53.032Z,51.70
2018-11-25T00:11:21.146Z,51.90
2018-11-25T00:13:49.264Z,51.80
2018-11-25T00:16:17.374Z,51.60
2018-11-25T00:18:45.801Z,51.70
2018-11-25T00:21:13.892Z,51.90
2018-11-25T00:23:42.044Z,51.90
2018-11-25T00:26:10.159Z,52.20
2018-11-25T00:28:38.319Z,52.70
2018-11-25T00:31:09.595Z,52.10
2018-11-25T00:33:34.872Z,52.00
2018-11-25T00:36:03.011Z,52.20
2018-11-25T00:38:31.176Z,52.00
2018-11-25T00:40:59.327Z,52.00
2018-11-25T00:43:27.465Z,52.20
2018-11-25T00:45:55.653Z,52.10
2018-11-25T00:48:23.806Z,52.00
2018-11-25T00:50:51.956Z,52.00
2018-11-25T00:53:20.063Z,51.90
2018-11-25T00:55:48.236Z,51.70
2018-11-25T00:58:16.376Z,51.70
2018-11-25T01:00:44.510Z,51.90
2018-11-25T01:03:12.639Z,52.10
2018-11-25T01:05:40.766Z,52.00
2018-11-25T01:08:08.961Z,51.90
2018-11-25T01:10:37.144Z,51.90
2018-11-25T01:13:05.524Z,51.90
2018-11-25T01:15:33.653Z,51.50
2018-11-25T01:18:01.788Z,51.60
2018-11-25T01:20:29.905Z,51.50
2018-11-25T01:22:58.107Z,51.30
2018-11-25T01:25:26.277Z,51.50
2018-11-25T01:27:54.408Z,51.40
2018-11-25T01:30:22.602Z,51.50
2018-11-25T01:32:50.746Z,51.50
2018-11-25T01:35:18.982Z,51.70
2018-11-25T01:37:47.154Z,51.50
2018-11-25T01:40:16.364Z,51.40
2018-11-25T01:42:44.495Z,51.40
2018-11-25T01:45:14.561Z,51.20
2018-11-25T01:47:42.676Z,51.20
2018-11-25T01:50:13.825Z,51.20
2018-11-25T01:52:41.932Z,51.20
2018-11-25T01:55:11.229Z,51.20
2018-11-25T01:57:39.335Z,51.20
2018-11-25T02:00:11.945Z,51.20
2018-11-25T02:02:40.164Z,51.10
2018-11-25T02:05:08.300Z,51.20
2018-11-25T02:07:36.384Z,51.30
2018-11-25T02:10:07.664Z,51.40
2018-11-25T02:12:35.783Z,51.60
2018-11-25T02:15:03.917Z,52.00
2018-11-25T02:17:32.080Z,51.80
2018-11-25T02:20:00.216Z,51.80
2018-11-25T02:22:29.052Z,51.60
2018-11-25T02:24:56.543Z,51.60
2018-11-25T02:27:24.672Z,51.80
2018-11-25T02:29:52.813Z,51.90
2018-11-25T02:32:20.981Z,51.80
2018-11-25T02:34:49.209Z,51.70
2018-11-25T02:37:17.359Z,52.20
2018-11-25T02:39:45.508Z,52.20
2018-11-25T02:42:13.658Z,51.80
2018-11-25T02:44:41.822Z,51.80
2018-11-25T02:47:09.951Z,51.90
2018-11-25T02:49:38.095Z,51.80
2018-11-25T02:52:06.269Z,52.00
2018-11-25T02:54:34.420Z,51.90
2018-11-25T02:57:02.549Z,52.30
2018-11-25T02:59:30.680Z,52.60
2018-11-25T03:01:58.868Z,52.30
2018-11-25T03:04:27.033Z,52.10
2018-11-25T03:06:55.200Z,52.00
2018-11-25T03:09:23.376Z,52.00
2018-11-25T03:11:51.618Z,52.20
2018-11-25T03:14:19.799Z,53.70
2018-11-25T03:16:47.956Z,53.10
2018-11-25T03:19:16.069Z,52.70
2018-11-25T03:21:45.044Z,52.60
2018-11-25T03:24:13.213Z,52.60
2018-11-25T03:26:41.384Z,52.60
2018-11-25T03:29:09.534Z,53.10
2018-11-25T03:31:37.705Z,53.20
2018-11-25T03:34:06.584Z,53.70
2018-11-25T03:36:34.714Z,53.30
2018-11-25T03:39:02.933Z,52.90
2018-11-25T03:41:31.168Z,52.70
2018-11-25T03:43:59.292Z,53.10
2018-11-25T03:46:27.422Z,53.50
2018-11-25T03:48:55.567Z,53.70
2018-11-25T03:51:23.686Z,53.40
2018-11-25T03:53:51.828Z,53.10
2018-11-25T03:56:19.980Z,52.90
2018-11-25T03:58:48.101Z,52.90
2018-11-25T04:01:16.274Z,53.00
2018-11-25T04:03:44.445Z,53.60
2018-11-25T04:06:12.589Z,53.30
2018-11-25T04:08:40.805Z,53.60
2018-11-25T04:11:09.005Z,53.30
2018-11-25T04:13:37.140Z,53.10
2018-11-25T04:16:05.434Z,53.30
2018-11-25T04:18:33.552Z,53.10
2018-11-25T04:21:01.680Z,53.20
2018-11-25T04:23:29.845Z,53.20
2018-11-25T04:25:58.005Z,53.60
2018-11-25T04:28:26.147Z,53.40
2018-11-25T04:30:54.253Z,53.40
2018-11-25T04:33:22.419Z,53.10
2018-11-25T04:35:50.569Z,53.30
2018-11-25T04:38:18.682Z,53.20
2018-11-25T04:40:46.838Z,53.40
2018-11-25T04:43:15.020Z,53.30
2018-11-25T04:45:43.185Z,53.20
2018-11-25T04:48:11.307Z,53.10
2018-11-25T04:50:39.439Z,53.30
2018-11-25T04:53:07.605Z,53.30
2018-11-25T04:55:35.752Z,53.20
2018-11-25T04:58:03.851Z,53.60
2018-11-25T05:00:32.020Z,54.00
2018-11-25T05:03:00.154Z,53.70
2018-11-25T05:05:28.277Z,53.70
2018-11-25T05:07:56.440Z,54.20
2018-11-25T05:10:24.617Z,54.20
2018-11-25T05:12:52.765Z,54.00
2018-11-25T05:15:21.656Z,53.70
2018-11-25T05:17:49.957Z,53.60
2018-11-25T05:20:18.801Z,53.90
2018-11-25T05:22:47.027Z,53.70
2018-11-25T05:25:16.107Z,53.50
2018-11-25T05:27:44.261Z,53.90
2018-11-25T05:30:19.740Z,53.60
2018-11-25T05:32:47.904Z,53.70
2018-11-25T05:35:16.905Z,53.40
2018-11-25T05:37:45.085Z,53.30
2018-11-25T05:40:13.972Z,53.60
2018-11-25T05:42:42.295Z,53.50
2018-11-25T05:45:15.084Z,53.60
2018-11-25T05:47:43.285Z,53.40
2018-11-25T05:50:13.429Z,53.20
2018-11-25T05:52:41.606Z,53.50
2018-11-25T05:55:10.754Z,53.70
2018-11-25T05:57:38.897Z,53.50
2018-11-25T06:00:11.633Z,53.40
2018-11-25T06:02:39.799Z,53.30
2018-11-25T06:05:08.003Z,53.00
2018-11-25T06:07:36.171Z,53.00
2018-11-25T06:10:04.349Z,53.20
2018-11-25T06:12:32.578Z,53.40
2018-11-25T06:15:00.730Z,53.70
2018-11-25T06:17:28.883Z,53.90
2018-11-25T06:19:57.025Z,53.50
2018-11-25T06:22:25.196Z,53.90
2018-11-25T06:24:53.470Z,54.40
2018-11-25T06:27:21.652Z,55.00
2018-11-25T06:29:49.761Z,53.90
2018-11-25T06:32:18.002Z,53.40
2018-11-25T06:34:46.149Z,53.50
2018-11-25T06:37:14.288Z,53.60
2018-11-25T06:39:42.457Z,53.30
2018-11-25T06:42:10.636Z,53.00
2018-11-25T06:44:38.778Z,52.90
2018-11-25T06:47:06.953Z,53.80
2018-11-25T06:49:35.101Z,54.00
2018-11-25T06:52:03.266Z,53.80
2018-11-25T06:54:31.414Z,53.60
2018-11-25T06:56:59.564Z,53.40
2018-11-25T06:59:27.724Z,53.50
2018-11-25T07:01:55.922Z,53.40
2018-11-25T07:04:24.109Z,53.30
2018-11-25T07:06:52.358Z,53.10
2018-11-25T07:09:20.545Z,52.80
2018-11-25T07:11:48.750Z,53.10
2018-11-25T07:14:16.893Z,53.10
2018-11-25T07:16:45.159Z,53.00
2018-11-25T07:19:13.340Z,53.00
2018-11-25T07:21:41.528Z,52.90
2018-11-25T07:24:09.789Z,53.30
2018-11-25T07:26:37.956Z,53.00
2018-11-25T07:29:06.189Z,53.00
2018-11-25T07:31:34.380Z,52.90
2018-11-25T07:34:02.588Z,52.90
2018-11-25T07:36:30.781Z,53.10
2018-11-25T07:38:59.117Z,53.10
2018-11-25T07:41:27.310Z,53.00
2018-11-25T07:43:55.481Z,52.90
2018-11-25T07:46:23.733Z,53.40
2018-11-25T07:48:51.926Z,53.40
2018-11-25T07:51:20.112Z,53.40
2018-11-25T07:53:48.280Z,53.30
2018-11-25T07:56:16.456Z,53.50
2018-11-25T07:58:44.656Z,53.40
2018-11-25T08:01:12.815Z,53.40
2018-11-25T08:03:41.004Z,53.60
2018-11-25T08:06:09.260Z,53.70
2018-11-25T08:08:37.464Z,53.50
2018-11-25T08:11:05.784Z,53.50
2018-11-25T08:13:33.980Z,55.00
2018-11-25T08:16:02.124Z,54.10
2018-11-25T08:18:30.249Z,53.90
2018-11-25T08:20:58.426Z,53.60
2018-11-25T08:23:26.689Z,54.10
2018-11-25T08:25:54.980Z,54.00
2018-11-25T08:28:23.130Z,54.60
2018-11-25T08:30:51.280Z,54.30
2018-11-25T08:33:19.480Z,54.30
2018-11-25T08:35:47.741Z,55.00
2018-11-25T08:38:15.915Z,54.60
2018-11-25T08:40:44.056Z,54.10
2018-11-25T08:43:12.280Z,53.80
2018-11-25T08:45:40.448Z,53.70
2018-11-25T08:48:08.613Z,53.90
2018-11-25T08:50:36.754Z,53.80
2018-11-25T08:53:04.986Z,53.90
2018-11-25T08:55:33.162Z,53.60
2018-11-25T08:58:01.393Z,53.60
2018-11-25T09:00:29.800Z,53.80
2018-11-25T09:02:58.005Z,53.80
2018-11-25T09:05:26.181Z,53.50
2018-11-25T09:07:54.334Z,53.50
2018-11-25T09:10:22.812Z,54.30
2018-11-25T09:12:56.318Z,54.10
2018-11-25T09:15:28.406Z,54.80
2018-11-25T09:17:56.584Z,54.50
2018-11-25T09:20:24.804Z,54.30
2018-11-25T09:22:53.012Z,54.00
2018-11-25T09:25:30.911Z,54.10
2018-11-25T09:28:00.192Z,53.90
2018-11-25T09:30:29.204Z,53.90
2018-11-25T09:32:57.491Z,53.80
2018-11-25T09:35:25.710Z,53.80
2018-11-25T09:37:53.833Z,53.80
2018-11-25T09:40:22.996Z,53.60
2018-11-25T09:42:51.169Z,53.60
2018-11-25T09:45:19.855Z,53.70
2018-11-25T09:47:48.227Z,53.50
2018-11-25T09:50:22.936Z,53.80
2018-11-25T09:52:51.160Z,53.70
2018-11-25T09:55:23.332Z,53.40
2018-11-25T09:57:52.833Z,53.50
2018-11-25T10:00:22.996Z,53.90
2018-11-25T10:02:51.145Z,53.90
2018-11-25T10:05:19.306Z,54.50
2018-11-25T10:07:47.479Z,54.90
2018-11-25T10:10:16.941Z,54.20
2018-11-25T10:12:45.107Z,54.10
2018-11-25T10:15:14.517Z,54.30
2018-11-25T10:17:42.720Z,55.00
2018-11-25T10:20:17.946Z,54.80
2018-11-25T10:22:46.120Z,54.20
2018-11-25T10:25:14.972Z,54.90
2018-11-25T10:27:43.158Z,54.50
2018-11-25T10:30:17.892Z,54.00
2018-11-25T10:32:47.036Z,53.80
2018-11-25T10:35:15.231Z,53.90
2018-11-25T10:37:43.436Z,53.70
2018-11-25T10:40:15.312Z,53.60
2018-11-25T10:42:43.445Z,53.50
2018-11-25T10:45:13.643Z,54.40
2018-11-25T10:47:41.816Z,54.10
2018-11-25T10:50:12.160Z,53.50
2018-11-25T10:52:40.355Z,53.70
2018-11-25T10:55:09.769Z,53.50
2018-11-25T10:57:38.003Z,54.40
2018-11-25T11:00:19.967Z,54.40
2018-11-25T11:02:48.468Z,54.50
2018-11-25T11:05:22.052Z,54.60
2018-11-25T11:07:50.177Z,54.80
2018-11-25T11:10:18.354Z,55.20
2018-11-25T11:12:46.574Z,54.90
2018-11-25T11:15:14.792Z,54.50
2018-11-25T11:17:43.095Z,54.00
2018-11-25T11:20:11.225Z,54.50
2018-11-25T11:22:39.398Z,54.80
2018-11-25T11:25:08.535Z,54.20
2018-11-25T11:27:36.674Z,54.20
2018-11-25T11:30:07.400Z,54.20
2018-11-25T11:32:35.670Z,53.80
2018-11-25T11:35:04.081Z,54.50
2018-11-25T11:37:32.326Z,54.30
2018-11-25T11:40:00.482Z,54.30
2018-11-25T11:42:28.967Z,54.00
2018-11-25T11:44:56.932Z,53.80
2018-11-25T11:47:25.140Z,54.60
2018-11-25T11:49:53.356Z,54.50
2018-11-25T11:52:21.585Z,54.70
2018-11-25T11:54:50.939Z,55.20
2018-11-25T11:57:19.152Z,54.90
2018-11-25T11:59:47.486Z,58.80
2018-11-25T12:02:15.665Z,58.00
2018-11-25T12:04:44.045Z,56.60
2018-11-25T12:07:12.172Z,56.00
2018-11-25T12:09:40.412Z,55.60
2018-11-25T12:12:08.628Z,56.00
2018-11-25T12:14:36.735Z,55.60
2018-11-25T12:17:05.123Z,55.00
2018-11-25T12:19:33.270Z,54.40
2018-11-25T12:22:01.499Z,55.20
2018-11-25T12:24:29.697Z,55.50
2018-11-25T12:26:57.885Z,54.90
2018-11-25T12:29:26.085Z,54.90
2018-11-25T12:31:54.262Z,54.70
2018-11-25T12:34:22.436Z,54.90
2018-11-25T12:36:50.651Z,54.60
2018-11-25T12:39:19.233Z,54.30
2018-11-25T12:41:47.426Z,54.10
2018-11-25T12:44:15.560Z,55.00
2018-11-25T12:46:43.696Z,54.40
2018-11-25T12:49:11.833Z,54.60
2018-11-25T12:51:40.049Z,54.70
2018-11-25T12:54:08.196Z,55.00
2018-11-25T12:56:36.387Z,55.60
2018-11-25T12:59:04.958Z,55.30
2018-11-25T13:01:33.116Z,54.80
2018-11-25T13:04:01.374Z,54.90
2018-11-25T13:06:29.577Z,54.90
2018-11-25T13:08:57.745Z,54.60
2018-11-25T13:11:25.904Z,54.00
2018-11-25T13:13:54.081Z,54.00
2018-11-25T13:16:22.259Z,53.70
2018-11-25T13:18:50.442Z,53.90
2018-11-25T13:21:18.672Z,53.70
2018-11-25T13:23:46.885Z,53.80
2018-11-25T13:26:15.041Z,53.70
2018-11-25T13:28:43.248Z,54.10
2018-11-25T13:31:11.584Z,53.80
2018-11-25T13:33:40.109Z,54.10
2018-11-25T13:36:09.608Z,54.00
2018-11-25T13:38:37.769Z,53.90
2018-11-25T13:41:06.889Z,54.10
2018-11-25T13:43:35.037Z,54.50
2018-11-25T13:46:03.611Z,54.40
2018-11-25T13:48:31.732Z,54.40
2018-11-25T13:51:07.364Z,54.50
2018-11-25T13:53:35.698Z,55.00
2018-11-25T13:56:03.909Z,55.00
2018-11-25T13:58:32.144Z,54.70
2018-11-25T14:01:00.441Z,55.50
2018-11-25T14:03:31.516Z,55.10
2018-11-25T14:05:59.687Z,54.60
2018-11-25T14:08:27.922Z,54.60
2018-11-25T14:11:00.131Z,54.00
2018-11-25T14:13:28.307Z,53.60
2018-11-25T14:15:56.468Z,53.60
2018-11-25T14:18:24.644Z,54.20
2018-11-25T14:20:52.770Z,54.60
2018-11-25T14:23:21.124Z,54.30
2018-11-25T14:25:49.734Z,54.50
2018-11-25T14:28:18.109Z,54.90
2018-11-25T14:30:46.343Z,54.20
2018-11-25T14:33:14.517Z,53.80
2018-11-25T14:35:42.684Z,53.90
2018-11-25T14:38:10.904Z,53.80
2018-11-25T14:40:39.163Z,54.80
2018-11-25T14:43:07.549Z,54.80
2018-11-25T14:45:35.646Z,53.90
2018-11-25T14:48:03.863Z,54.50
2018-11-25T14:50:32.034Z,54.00
2018-11-25T14:53:00.260Z,53.80
2018-11-25T14:55:28.413Z,54.00
2018-11-25T14:57:56.590Z,53.90
2018-11-25T15:00:24.708Z,53.60
2018-11-25T15:02:55.348Z,53.70
2018-11-25T15:05:25.415Z,53.60
2018-11-25T15:07:53.613Z,53.80
2018-11-25T15:10:21.745Z,53.80
2018-11-25T15:12:49.993Z,53.70
2018-11-25T15:15:18.509Z,53.40
2018-11-25T15:17:46.764Z,54.10
2018-11-25T15:20:14.933Z,53.90
2018-11-25T15:22:44.855Z,53.70
2018-11-25T15:25:16.481Z,53.50
2018-11-25T15:27:44.697Z,53.40
2018-11-25T15:30:12.831Z,53.50
2018-11-25T15:32:41.389Z,53.40
2018-11-25T15:35:10.762Z,53.30
2018-11-25T15:37:40.374Z,53.20
2018-11-25T15:40:11.656Z,53.10
2018-11-25T15:42:39.909Z,53.20
2018-11-25T15:45:09.664Z,53.10
2018-11-25T15:47:38.293Z,53.10
2018-11-25T15:50:09.595Z,53.00
2018-11-25T15:52:38.129Z,53.20
2018-11-25T15:55:09.106Z,53.00
2018-11-25T15:57:37.235Z,53.20
2018-11-25T16:00:16.281Z,53.40
2018-11-25T16:02:44.517Z,54.70
2018-11-25T16:05:14.275Z,54.10
2018-11-25T16:07:42.790Z,53.70
2018-11-25T16:10:11.925Z,54.00
2018-11-25T16:12:40.914Z,53.90
2018-11-25T16:15:12.219Z,53.90
2018-11-25T16:17:40.431Z,53.80
2018-11-25T16:20:10.211Z,53.60
2018-11-25T16:22:38.321Z,53.40
2018-11-25T16:25:14.415Z,53.60
2018-11-25T16:27:42.554Z,54.10
2018-11-25T16:30:12.185Z,54.20
2018-11-25T16:32:40.299Z,54.10
2018-11-25T16:35:09.632Z,59.20
2018-11-25T16:37:38.466Z,54.50
2018-11-25T16:40:13.621Z,54.50
2018-11-25T16:42:41.876Z,55.20
2018-11-25T16:45:11.436Z,54.90
2018-11-25T16:47:39.560Z,54.30
2018-11-25T16:50:09.389Z,54.00
2018-11-25T16:52:37.505Z,54.00
2018-11-25T16:55:07.605Z,54.40
2018-11-25T16:57:35.767Z,54.90
2018-11-25T17:00:04.656Z,54.20
2018-11-25T17:02:32.776Z,54.50
2018-11-25T17:05:01.013Z,54.70
2018-11-25T17:07:29.124Z,54.80
2018-11-25T17:09:57.627Z,54.40
2018-11-25T17:12:25.756Z,54.60
2018-11-25T17:14:53.922Z,54.30
2018-11-25T17:17:22.122Z,53.70
2018-11-25T17:19:50.383Z,55.20
2018-11-25T17:22:18.612Z,54.80
2018-11-25T17:24:46.858Z,54.60
2018-11-25T17:27:15.312Z,54.80
2018-11-25T17:29:43.487Z,54.30
2018-11-25T17:32:11.641Z,54.10
2018-11-25T17:34:39.836Z,53.70
2018-11-25T17:37:07.962Z,54.20
2018-11-25T17:39:36.137Z,54.10
2018-11-25T17:42:04.252Z,53.60
2018-11-25T17:44:32.474Z,53.50
2018-11-25T17:47:00.616Z,53.30
2018-11-25T17:49:28.927Z,53.70
2018-11-25T17:51:57.089Z,58.70
2018-11-25T17:54:25.291Z,56.40
2018-11-25T17:56:53.566Z,55.90
2018-11-25T17:59:21.589Z,55.70
2018-11-25T18:01:49.752Z,55.70
2018-11-25T18:04:17.920Z,55.80
2018-11-25T18:06:46.033Z,55.80
2018-11-25T18:09:14.332Z,55.70
2018-11-25T18:11:42.584Z,55.70
2018-11-25T18:14:10.749Z,55.70
2018-11-25T18:16:38.948Z,55.60
2018-11-25T18:19:23.053Z,55.60
2018-11-25T18:21:58.410Z,55.60
2018-11-25T18:24:26.596Z,55.70
2018-11-25T18:26:54.774Z,55.70
2018-11-25T18:29:23.040Z,55.60
2018-11-25T18:31:51.398Z,55.70
2018-11-25T18:34:19.928Z,55.70
2018-11-25T18:36:48.165Z,55.70
2018-11-25T18:39:16.435Z,55.60
2018-11-25T18:41:44.675Z,55.50
2018-11-25T18:44:12.887Z,55.70
2018-11-25T18:46:46.549Z,56.60
2018-11-25T18:49:10.426Z,55.70
2018-11-25T18:51:40.185Z,55.80
2018-11-25T18:54:09.334Z,55.70
2018-11-25T18:56:37.478Z,55.60
2018-11-25T18:59:06.071Z,55.50
2018-11-25T19:01:49.434Z,55.40
2018-11-25T19:04:17.645Z,55.70
2018-11-25T19:06:45.892Z,55.60
2018-11-25T19:09:14.166Z,55.80
2018-11-25T19:11:42.327Z,55.70
2018-11-25T19:14:10.525Z,55.40
2018-11-25T19:16:38.656Z,55.30
2018-11-25T19:19:06.830Z,55.20
2018-11-25T19:21:35.020Z,55.10
2018-11-25T19:24:03.241Z,55.10
2018-11-25T19:26:31.367Z,55.10
2018-11-25T19:28:59.548Z,54.80
2018-11-25T19:31:27.737Z,54.80
2018-11-25T19:33:55.931Z,54.60
2018-11-25T19:36:24.796Z,54.60
2018-11-25T19:38:53.693Z,54.50
2018-11-25T19:41:21.926Z,54.90
2018-11-25T19:43:50.092Z,55.20
2018-11-25T19:46:18.512Z,55.40
2018-11-25T19:48:46.737Z,55.50
2018-11-25T19:51:17.529Z,55.50
2018-11-25T19:53:43.163Z,55.60
2018-11-25T19:56:11.360Z,55.60
2018-11-25T19:58:39.805Z,55.80
2018-11-25T20:01:08.163Z,55.90
2018-11-25T20:03:36.487Z,55.90
2018-11-25T20:06:04.897Z,55.90
2018-11-25T20:08:33.175Z,56.00
2018-11-25T20:11:01.891Z,56.10
2018-11-25T20:13:30.142Z,56.10
2018-11-25T20:16:03.776Z,56.00
2018-11-25T20:18:32.014Z,56.00
2018-11-25T20:21:05.679Z,55.90
2018-11-25T20:23:33.847Z,55.80
2018-11-25T20:26:02.894Z,55.60
2018-11-25T20:28:31.176Z,55.70
2018-11-25T20:30:59.349Z,55.60
2018-11-25T20:33:33.025Z,55.80
2018-11-25T20:36:01.272Z,55.90
2018-11-25T20:38:34.882Z,55.90
2018-11-25T20:41:03.141Z,55.90
2018-11-25T20:43:31.485Z,56.00
2018-11-25T20:46:04.867Z,56.20
2018-11-25T20:48:33.162Z,56.10
2018-11-25T20:51:01.405Z,56.10
2018-11-25T20:53:35.312Z,56.10
2018-11-25T20:56:03.461Z,56.20
2018-11-25T20:58:31.748Z,56.30
2018-11-25T21:00:59.892Z,56.30
2018-11-25T21:03:28.211Z,56.30
2018-11-25T21:05:56.349Z,56.20
2018-11-25T21:08:24.651Z,56.20
2018-11-25T21:10:52.865Z,56.20
2018-11-25T21:13:21.077Z,56.20
2018-11-25T21:15:49.389Z,56.20
2018-11-25T21:18:17.592Z,56.20
2018-11-25T21:20:51.133Z,56.30
2018-11-25T21:23:13.998Z,56.30
2018-11-25T21:25:42.165Z,56.20
2018-11-25T21:28:10.479Z,56.20
2018-11-25T21:30:38.641Z,56.30
2018-11-25T21:33:06.996Z,56.30
2018-11-25T21:35:35.156Z,56.30
2018-11-25T21:38:03.347Z,56.30
2018-11-25T21:40:31.641Z,56.30
2018-11-25T21:42:59.765Z,56.30
2018-11-25T21:45:27.932Z,56.40
2018-11-25T21:47:56.047Z,56.40
2018-11-25T21:50:25.463Z,56.40
2018-11-25T21:52:53.801Z,56.30
2018-11-25T21:55:22.104Z,56.50
2018-11-25T21:57:50.276Z,56.60
2018-11-25T22:00:19.881Z,56.50
2018-11-25T22:02:48.097Z,56.40
2018-11-25T22:05:16.349Z,56.30
2018-11-25T22:07:47.183Z,56.50
2018-11-25T22:10:16.765Z,56.40
2018-11-25T22:12:45.212Z,56.50
2018-11-25T22:15:16.619Z,56.50
2018-11-25T22:17:45.071Z,56.40
2018-11-25T22:20:14.013Z,56.40
2018-11-25T22:22:42.259Z,56.40
2018-11-25T22:25:11.430Z,56.40
2018-11-25T22:27:39.581Z,56.40
2018-11-25T22:30:17.140Z,56.40
2018-11-25T22:32:45.408Z,56.60
2018-11-25T22:35:16.302Z,56.40
2018-11-25T22:37:44.422Z,56.40
2018-11-25T22:40:13.480Z,56.30
2018-11-25T22:42:42.380Z,56.20
2018-11-25T22:45:11.441Z,56.30
2018-11-25T22:47:39.548Z,56.30
2018-11-25T22:50:11.041Z,56.40
2018-11-25T22:52:39.140Z,56.40
2018-11-25T22:55:17.532Z,56.40
2018-11-25T22:57:45.934Z,56.40
2018-11-25T23:00:23.985Z,56.50
2018-11-25T23:02:52.155Z,56.50
2018-11-25T23:05:31.572Z,56.50
2018-11-25T23:07:59.726Z,56.50
2018-11-25T23:10:27.853Z,56.50
2018-11-25T23:12:55.980Z,56.40
2018-11-25T23:15:24.145Z,56.50
2018-11-25T23:17:52.265Z,56.50
2018-11-25T23:20:26.957Z,56.40
2018-11-25T23:22:55.215Z,56.40
2018-11-25T23:25:23.369Z,56.40
2018-11-25T23:27:51.490Z,56.50
2018-11-25T23:30:19.605Z,56.40
2018-11-25T23:32:47.724Z,56.30
2018-11-25T23:35:18.147Z,56.40
2018-11-25T23:37:46.282Z,56.20
2018-11-25T23:40:14.508Z,56.30
2018-11-25T23:42:42.620Z,56.30
2018-11-25T23:45:11.969Z,56.40
2018-11-25T23:47:40.119Z,56.40
2018-11-25T23:50:09.574Z,56.30
2018-11-25T23:52:38.114Z,56.30
2018-11-25T23:55:09.723Z,56.40
2018-11-25T23:57:37.849Z,56.30
